createdAt,value
2019-03-01T00:01:19.946Z,11.30
2019-03-01T00:03:48.296Z,11.30
2019-03-01T00:06:20.006Z,11.40
2019-03-01T00:09:14.135Z,11.50
2019-03-01T00:11:48.444Z,11.50
2019-03-01T00:14:25.461Z,11.60
2019-03-01T00:16:59.732Z,11.60
2019-03-01T00:19:43.126Z,11.60
2019-03-01T00:28:34.465Z,11.60
2019-03-01T00:31:28.650Z,11.60
2019-03-01T00:34:11.974Z,11.70
2019-03-01T00:37:04.389Z,11.70
2019-03-01T00:40:02.693Z,11.60
2019-03-01T00:42:55.294Z,11.50
2019-03-01T00:45:24.045Z,11.50
2019-03-01T00:47:52.690Z,11.50
2019-03-01T00:50:21.466Z,11.60
2019-03-01T00:52:50.240Z,11.60
2019-03-01T00:55:18.934Z,11.60
2019-03-01T00:57:47.526Z,11.60
2019-03-01T01:00:43.176Z,11.60
2019-03-01T01:03:11.752Z,11.60
2019-03-01T01:05:40.453Z,11.60
2019-03-01T01:08:09.189Z,11.60
2019-03-01T01:10:37.821Z,11.60
2019-03-01T01:13:06.454Z,11.60
2019-03-01T01:15:35.131Z,11.70
2019-03-01T01:18:03.765Z,11.80
2019-03-01T01:20:32.370Z,11.80
2019-03-01T01:23:01.069Z,11.60
2019-03-01T01:25:29.636Z,11.60
2019-03-01T01:27:58.291Z,11.60
2019-03-01T01:30:26.975Z,11.50
2019-03-01T01:32:57.431Z,11.60
2019-03-01T05:44:50.725Z,9.40
2019-03-01T05:50:25.598Z,9.60
2019-03-01T05:52:54.516Z,9.70
2019-03-01T05:55:26.023Z,9.70
2019-03-01T06:04:35.295Z,9.70
2019-03-01T06:13:19.145Z,9.40
2019-03-01T06:16:02.623Z,9.20
2019-03-01T06:18:42.895Z,9.30
2019-03-01T06:21:20.239Z,9.20
2019-03-01T06:24:22.135Z,9.20
2019-03-01T06:30:51.633Z,9.10
2019-03-01T06:36:55.713Z,9.30
2019-03-01T06:54:11.148Z,9.40
2019-03-01T06:56:42.448Z,10.10
2019-03-01T07:02:58.571Z,9.90
2019-03-01T07:05:27.687Z,9.60
2019-03-01T07:07:56.550Z,9.50
2019-03-01T07:10:31.351Z,9.30
2019-03-01T07:13:13.415Z,9.50
2019-03-01T07:15:46.589Z,9.50
2019-03-01T07:18:17.497Z,9.50
2019-03-01T07:20:46.208Z,9.70
2019-03-01T07:23:14.927Z,9.70
2019-03-01T07:25:43.611Z,9.60
2019-03-01T07:28:12.377Z,9.70
2019-03-01T07:30:42.809Z,9.70
2019-03-01T07:33:11.708Z,9.70
2019-03-01T07:35:40.413Z,9.60
2019-03-01T07:38:09.329Z,9.70
2019-03-01T07:40:38.085Z,9.70
2019-03-01T08:48:03.344Z,9.40
2019-03-01T08:50:33.509Z,9.50
2019-03-01T10:53:14.387Z,10.90
2019-03-01T10:55:50.890Z,11.00
2019-03-01T11:16:03.990Z,11.10
2019-03-01T11:18:38.988Z,11.00
2019-03-01T11:24:22.216Z,11.10
2019-03-01T11:29:55.712Z,11.40
2019-03-01T11:32:28.450Z,11.40
2019-03-01T11:35:07.779Z,11.40
2019-03-01T11:41:24.630Z,11.30
2019-03-01T14:07:06.310Z,12.50
2019-03-01T14:09:37.810Z,12.50
2019-03-01T14:12:27.315Z,12.60
2019-03-01T14:14:59.349Z,12.60
2019-03-01T14:17:30.402Z,12.60
2019-03-01T14:20:00.811Z,12.60
2019-03-01T14:22:29.860Z,12.20
2019-03-01T14:25:02.511Z,12.00
2019-03-01T14:27:33.582Z,12.00
2019-03-01T14:30:25.172Z,12.00
2019-03-01T14:33:06.664Z,12.00
2019-03-01T14:35:48.443Z,12.00
2019-03-01T14:38:17.389Z,12.00
2019-03-01T14:40:46.270Z,12.00
2019-03-01T14:43:16.867Z,11.90
2019-03-01T14:48:55.221Z,12.00
2019-03-01T14:51:47.855Z,12.10
2019-03-01T14:57:34.859Z,12.30
2019-03-01T15:12:28.600Z,12.30
2019-03-01T15:36:52.535Z,12.00
2019-03-01T15:41:42.073Z,12.30
2019-03-01T15:44:11.615Z,12.30
2019-03-01T16:18:38.946Z,12.70
2019-03-01T16:24:33.682Z,12.60
2019-03-01T16:32:50.547Z,12.30
2019-03-01T16:35:22.837Z,12.20
2019-03-01T16:37:53.252Z,12.40
2019-03-01T16:49:14.297Z,12.00
2019-03-01T16:51:43.213Z,12.00
2019-03-01T17:11:37.685Z,11.90
2019-03-01T17:14:10.435Z,11.80
2019-03-01T17:20:17.015Z,11.80
2019-03-01T17:22:48.553Z,12.10
2019-03-01T17:25:26.891Z,11.90
2019-03-01T17:27:57.365Z,11.90
2019-03-01T17:30:30.136Z,11.80
2019-03-01T17:33:00.587Z,11.80
2019-03-01T17:35:53.441Z,11.80
2019-03-01T17:38:25.944Z,12.20
2019-03-01T17:41:01.901Z,12.20
2019-03-01T17:43:44.899Z,12.10
2019-03-01T17:46:32.933Z,12.00
2019-03-01T17:49:17.171Z,12.00
2019-03-01T17:51:57.674Z,12.00
2019-03-01T18:40:45.091Z,12.20
2019-03-01T18:43:26.085Z,12.10
2019-03-01T18:45:55.060Z,12.00
2019-03-01T18:48:35.425Z,11.90
2019-03-01T18:51:06.734Z,11.80
2019-03-01T18:53:44.931Z,11.70
2019-03-01T18:56:13.987Z,11.80
2019-03-01T19:02:05.113Z,11.80
2019-03-01T19:04:34.127Z,11.80
2019-03-01T19:09:54.618Z,11.80
2019-03-01T19:15:15.612Z,11.90
2019-03-01T19:17:45.890Z,11.90
2019-03-01T19:23:17.459Z,11.90
2019-03-01T19:25:46.303Z,11.80
2019-03-01T19:31:39.104Z,11.60
2019-03-01T19:34:08.080Z,11.50
2019-03-01T19:39:47.543Z,11.60
2019-03-01T19:42:43.223Z,11.80
2019-03-01T19:45:17.248Z,11.80
2019-03-01T19:48:01.319Z,11.90
2019-03-01T19:50:31.809Z,11.90
2019-03-01T19:53:00.654Z,11.80
2019-03-01T19:55:29.660Z,11.90
2019-03-01T19:57:58.803Z,11.90
2019-03-01T20:00:34.400Z,12.10
2019-03-01T20:03:11.297Z,11.90
2019-03-01T20:05:41.396Z,11.90
2019-03-01T20:08:14.859Z,11.80
2019-03-01T20:10:43.533Z,11.70
2019-03-01T20:13:13.018Z,11.40
2019-03-01T20:15:45.895Z,11.30
2019-03-01T20:18:13.203Z,11.20
2019-03-01T20:20:41.954Z,11.40
2019-03-01T20:23:10.654Z,11.20
2019-03-01T20:25:39.416Z,11.40
2019-03-01T20:28:11.462Z,11.60
2019-03-01T20:31:04.947Z,11.30
2019-03-01T20:33:30.990Z,10.90
2019-03-01T20:35:59.772Z,11.10
2019-03-01T20:38:28.831Z,11.20
2019-03-01T20:40:59.848Z,11.40
2019-03-01T20:43:27.985Z,11.20
2019-03-01T20:45:59.289Z,11.10
2019-03-01T20:48:28.993Z,10.80
2019-03-01T20:50:58.406Z,10.80
2019-03-01T20:53:27.053Z,10.90
2019-03-01T20:55:55.637Z,10.70
2019-03-01T20:58:24.288Z,10.80
2019-03-01T21:00:52.941Z,10.90
2019-03-01T21:03:24.907Z,10.80
2019-03-01T21:05:51.861Z,10.70
2019-03-01T21:08:20.842Z,10.70
2019-03-01T21:10:50.049Z,10.70
2019-03-01T21:13:20.457Z,10.80
2019-03-01T21:15:49.090Z,10.80
2019-03-01T21:18:17.812Z,11.00
2019-03-01T21:20:46.559Z,10.80
2019-03-01T21:23:15.904Z,11.10
2019-03-01T21:25:44.532Z,10.80
2019-03-01T21:28:13.248Z,10.90
2019-03-01T21:30:41.954Z,10.90
2019-03-01T21:33:10.584Z,11.00
2019-03-01T21:35:39.232Z,11.00
2019-03-01T21:38:10.624Z,10.80
2019-03-01T21:40:38.152Z,10.60
2019-03-01T21:43:06.711Z,10.70
2019-03-01T21:45:35.362Z,10.80
2019-03-01T21:48:04.137Z,10.70
2019-03-01T21:50:32.770Z,10.90
2019-03-01T21:53:01.827Z,10.70
2019-03-01T21:55:31.796Z,10.50
2019-03-01T21:58:03.452Z,10.60
2019-03-01T22:00:31.486Z,10.80
2019-03-01T22:03:00.172Z,10.70
2019-03-01T22:05:28.926Z,10.60
2019-03-01T22:07:57.598Z,10.40
2019-03-01T22:10:26.338Z,10.50
2019-03-01T22:12:56.853Z,10.60
2019-03-01T22:15:29.097Z,10.40
2019-03-01T22:17:57.820Z,10.60
2019-03-01T22:20:27.367Z,10.60
2019-03-01T22:22:56.148Z,10.50
2019-03-01T22:25:24.952Z,10.40
2019-03-01T22:27:53.795Z,10.40
2019-03-01T22:30:30.719Z,10.40
2019-03-01T22:32:59.365Z,10.40
2019-03-01T22:35:28.346Z,10.10
2019-03-01T22:38:00.870Z,10.30
2019-03-01T22:40:29.427Z,10.50
2019-03-01T22:42:58.313Z,10.40
2019-03-01T22:45:26.990Z,10.50
2019-03-01T22:47:55.570Z,10.70
2019-03-01T22:50:24.229Z,10.90
2019-03-01T22:52:53.011Z,10.80
2019-03-01T22:55:21.722Z,10.60
2019-03-01T22:57:50.417Z,10.50
2019-03-01T23:00:50.728Z,10.50
2019-03-01T23:03:20.216Z,10.60
2019-03-01T23:05:49.796Z,10.70
2019-03-01T23:08:19.443Z,10.70
2019-03-01T23:10:48.239Z,10.60
2019-03-01T23:13:20.775Z,10.50
2019-03-01T23:15:47.492Z,10.40
2019-03-01T23:18:16.030Z,10.30
2019-03-01T23:20:44.610Z,10.50
2019-03-01T23:23:13.346Z,10.40
2019-03-01T23:25:42.805Z,10.20
2019-03-01T23:28:12.684Z,10.20
2019-03-01T23:30:41.528Z,10.50
2019-03-01T23:33:10.288Z,10.60
2019-03-01T23:35:39.051Z,10.70
2019-03-01T23:38:07.868Z,10.70
2019-03-01T23:40:36.798Z,10.90
2019-03-01T23:43:05.512Z,10.80
2019-03-01T23:45:34.259Z,10.80
2019-03-01T23:48:02.980Z,10.70
2019-03-01T23:50:34.859Z,10.80
2019-03-01T23:53:02.059Z,10.70
2019-03-01T23:55:30.974Z,10.50
2019-03-01T23:58:05.973Z,10.50
